sensor_id;sensor_type;location;lat;lon;timestamp;temperature;humidity
792;DHT22;379;49.022;12.148;2022-08-19T00:02:18;19.80;99.90
792;DHT22;379;49.022;12.148;2022-08-19T00:04:44;19.70;99.90
792;DHT22;379;49.022;12.148;2022-08-19T00:07:14;19.70;99.90
792;DHT22;379;49.022;12.148;2022-08-19T00:09:40;19.70;99.90
792;DHT22;379;49.022;12.148;2022-08-19T00:12:09;19.60;99.90
792;DHT22;379;49.022;12.148;2022-08-19T00:14:36;19.60;99.90
792;DHT22;379;49.022;12.148;2022-08-19T00:17:04;19.60;99.90
792;DHT22;379;49.022;12.148;2022-08-19T00:19:32;19.60;99.90
792;DHT22;379;49.022;12.148;2022-08-19T00:21:59;19.60;99.90
792;DHT22;379;49.022;12.148;2022-08-19T00:24:28;19.60;99.90
792;DHT22;379;49.022;12.148;2022-08-19T00:26:55;19.60;99.90
792;DHT22;379;49.022;12.148;2022-08-19T00:29:24;19.60;99.90
792;DHT22;379;49.022;12.148;2022-08-19T00:31:53;19.60;99.90
792;DHT22;379;49.022;12.148;2022-08-19T00:34:22;19.60;99.90
792;DHT22;379;49.022;12.148;2022-08-19T00:36:49;19.60;99.90
792;DHT22;379;49.022;12.148;2022-08-19T00:39:17;19.60;99.90
792;DHT22;379;49.022;12.148;2022-08-19T00:41:46;19.60;99.90
792;DHT22;379;49.022;12.148;2022-08-19T00:44:16;19.60;99.90
792;DHT22;379;49.022;12.148;2022-08-19T00:46:48;19.60;99.90
792;DHT22;379;49.022;12.148;2022-08-19T00:49:18;19.50;99.90
792;DHT22;379;49.022;12.148;2022-08-19T00:51:50;19.50;99.90
792;DHT22;379;49.022;12.148;2022-08-19T00:54:18;19.50;99.90
792;DHT22;379;49.022;12.148;2022-08-19T00:56:47;19.50;99.90
792;DHT22;379;49.022;12.148;2022-08-19T00:59:14;19.50;99.90
792;DHT22;379;49.022;12.148;2022-08-19T01:01:43;19.50;99.90
792;DHT22;379;49.022;12.148;2022-08-19T01:04:12;19.50;99.90
792;DHT22;379;49.022;12.148;2022-08-19T01:06:39;19.50;99.90
792;DHT22;379;49.022;12.148;2022-08-19T01:09:07;19.50;99.90
792;DHT22;379;49.022;12.148;2022-08-19T01:11:38;19.50;99.90
792;DHT22;379;49.022;12.148;2022-08-19T01:14:07;19.50;99.90
792;DHT22;379;49.022;12.148;2022-08-19T01:16:35;19.50;99.90
792;DHT22;379;49.022;12.148;2022-08-19T01:19:04;19.50;99.90
792;DHT22;379;49.022;12.148;2022-08-19T01:21:42;19.50;99.90
792;DHT22;379;49.022;12.148;2022-08-19T01:24:13;19.50;99.90
792;DHT22;379;49.022;12.148;2022-08-19T01:26:42;19.50;99.90
792;DHT22;379;49.022;12.148;2022-08-19T01:29:10;19.50;99.90
792;DHT22;379;49.022;12.148;2022-08-19T01:31:37;19.50;99.90
792;DHT22;379;49.022;12.148;2022-08-19T01:34:05;19.50;99.90
792;DHT22;379;49.022;12.148;2022-08-19T01:36:35;19.50;99.90
792;DHT22;379;49.022;12.148;2022-08-19T01:39:06;19.50;99.90
792;DHT22;379;49.022;12.148;2022-08-19T01:41:35;19.50;99.90
792;DHT22;379;49.022;12.148;2022-08-19T01:44:03;19.50;99.90
792;DHT22;379;49.022;12.148;2022-08-19T01:46:31;19.50;99.90
792;DHT22;379;49.022;12.148;2022-08-19T01:48:58;19.50;99.90
792;DHT22;379;49.022;12.148;2022-08-19T01:51:26;19.40;99.90
792;DHT22;379;49.022;12.148;2022-08-19T01:53:54;19.40;99.90
792;DHT22;379;49.022;12.148;2022-08-19T01:56:20;19.40;99.90
792;DHT22;379;49.022;12.148;2022-08-19T01:58:51;19.40;99.90
792;DHT22;379;49.022;12.148;2022-08-19T02:01:19;19.40;99.90
792;DHT22;379;49.022;12.148;2022-08-19T02:03:46;19.30;99.90
792;DHT22;379;49.022;12.148;2022-08-19T02:06:13;19.30;99.90
792;DHT22;379;49.022;12.148;2022-08-19T02:08:42;19.30;99.90
792;DHT22;379;49.022;12.148;2022-08-19T02:11:18;19.20;99.90
792;DHT22;379;49.022;12.148;2022-08-19T02:13:45;19.20;99.90
792;DHT22;379;49.022;12.148;2022-08-19T02:16:13;19.20;99.90
792;DHT22;379;49.022;12.148;2022-08-19T02:18:40;19.20;99.90
792;DHT22;379;49.022;12.148;2022-08-19T02:21:07;19.30;99.90
792;DHT22;379;49.022;12.148;2022-08-19T02:23:34;19.30;99.90
792;DHT22;379;49.022;12.148;2022-08-19T02:26:00;19.30;99.90
792;DHT22;379;49.022;12.148;2022-08-19T02:28:27;19.40;99.90
792;DHT22;379;49.022;12.148;2022-08-19T02:30:54;19.40;99.90
792;DHT22;379;49.022;12.148;2022-08-19T02:33:22;19.40;99.90
792;DHT22;379;49.022;12.148;2022-08-19T02:35:49;19.40;99.90
792;DHT22;379;49.022;12.148;2022-08-19T02:38:15;19.50;99.90
792;DHT22;379;49.022;12.148;2022-08-19T02:40:53;19.40;99.90
792;DHT22;379;49.022;12.148;2022-08-19T02:43:21;19.50;99.90
792;DHT22;379;49.022;12.148;2022-08-19T02:45:48;19.50;99.90
792;DHT22;379;49.022;12.148;2022-08-19T02:48:16;19.50;99.90
792;DHT22;379;49.022;12.148;2022-08-19T02:50:45;19.50;99.90
792;DHT22;379;49.022;12.148;2022-08-19T02:53:13;19.50;99.90
792;DHT22;379;49.022;12.148;2022-08-19T02:55:43;19.50;99.90
792;DHT22;379;49.022;12.148;2022-08-19T02:58:11;19.50;99.90
792;DHT22;379;49.022;12.148;2022-08-19T03:00:41;19.50;99.90
792;DHT22;379;49.022;12.148;2022-08-19T03:03:09;19.50;99.90
792;DHT22;379;49.022;12.148;2022-08-19T03:05:36;19.50;99.90
792;DHT22;379;49.022;12.148;2022-08-19T03:08:04;19.50;99.90
792;DHT22;379;49.022;12.148;2022-08-19T03:10:32;19.50;99.90
792;DHT22;379;49.022;12.148;2022-08-19T03:12:59;19.50;99.90
792;DHT22;379;49.022;12.148;2022-08-19T03:15:25;19.50;99.90
792;DHT22;379;49.022;12.148;2022-08-19T03:17:52;19.50;99.90
792;DHT22;379;49.022;12.148;2022-08-19T03:20:19;19.50;99.90
792;DHT22;379;49.022;12.148;2022-08-19T03:22:46;19.50;99.90
792;DHT22;379;49.022;12.148;2022-08-19T03:25:14;19.50;99.90
792;DHT22;379;49.022;12.148;2022-08-19T03:27:42;19.50;99.90
792;DHT22;379;49.022;12.148;2022-08-19T03:30:10;19.60;99.90
792;DHT22;379;49.022;12.148;2022-08-19T03:32:37;19.50;99.90
792;DHT22;379;49.022;12.148;2022-08-19T03:35:04;19.60;99.90
792;DHT22;379;49.022;12.148;2022-08-19T03:37:31;19.60;99.90
792;DHT22;379;49.022;12.148;2022-08-19T03:39:58;19.60;99.90
792;DHT22;379;49.022;12.148;2022-08-19T03:42:26;19.60;99.90
792;DHT22;379;49.022;12.148;2022-08-19T03:44:53;19.60;99.90
792;DHT22;379;49.022;12.148;2022-08-19T03:47:20;19.60;99.90
792;DHT22;379;49.022;12.148;2022-08-19T03:49:46;19.60;99.90
792;DHT22;379;49.022;12.148;2022-08-19T03:52:13;19.60;99.90
792;DHT22;379;49.022;12.148;2022-08-19T03:54:41;19.60;99.90
792;DHT22;379;49.022;12.148;2022-08-19T03:57:07;19.60;99.90
792;DHT22;379;49.022;12.148;2022-08-19T03:59:38;19.60;99.90
792;DHT22;379;49.022;12.148;2022-08-19T04:02:08;19.60;99.90
792;DHT22;379;49.022;12.148;2022-08-19T04:04:36;19.60;99.90
792;DHT22;379;49.022;12.148;2022-08-19T04:07:04;19.60;99.90
792;DHT22;379;49.022;12.148;2022-08-19T04:09:31;19.60;99.90
792;DHT22;379;49.022;12.148;2022-08-19T04:11:58;19.60;99.90
792;DHT22;379;49.022;12.148;2022-08-19T04:14:27;19.60;99.90
792;DHT22;379;49.022;12.148;2022-08-19T04:16:56;19.60;99.90
792;DHT22;379;49.022;12.148;2022-08-19T04:19:24;19.70;99.90
792;DHT22;379;49.022;12.148;2022-08-19T04:21:52;19.60;99.90
792;DHT22;379;49.022;12.148;2022-08-19T04:24:20;19.60;99.90
792;DHT22;379;49.022;12.148;2022-08-19T04:26:47;19.60;99.90
792;DHT22;379;49.022;12.148;2022-08-19T04:29:17;19.60;99.90
792;DHT22;379;49.022;12.148;2022-08-19T04:31:46;19.60;99.90
792;DHT22;379;49.022;12.148;2022-08-19T04:34:18;19.70;99.90
792;DHT22;379;49.022;12.148;2022-08-19T04:36:48;19.70;99.90
792;DHT22;379;49.022;12.148;2022-08-19T04:39:19;19.70;99.90
792;DHT22;379;49.022;12.148;2022-08-19T04:41:47;19.70;99.90
792;DHT22;379;49.022;12.148;2022-08-19T04:44:32;19.70;99.90
792;DHT22;379;49.022;12.148;2022-08-19T04:46:58;19.70;99.90
792;DHT22;379;49.022;12.148;2022-08-19T04:49:27;19.70;99.90
792;DHT22;379;49.022;12.148;2022-08-19T04:51:55;19.70;99.90
792;DHT22;379;49.022;12.148;2022-08-19T04:54:24;19.70;99.90
792;DHT22;379;49.022;12.148;2022-08-19T04:56:51;19.80;99.90
792;DHT22;379;49.022;12.148;2022-08-19T04:59:19;19.80;99.90
792;DHT22;379;49.022;12.148;2022-08-19T05:01:47;19.80;99.90
792;DHT22;379;49.022;12.148;2022-08-19T05:04:17;19.90;99.90
792;DHT22;379;49.022;12.148;2022-08-19T05:06:46;19.90;99.90
792;DHT22;379;49.022;12.148;2022-08-19T05:09:14;19.90;99.90
792;DHT22;379;49.022;12.148;2022-08-19T05:11:41;20.00;99.90
792;DHT22;379;49.022;12.148;2022-08-19T05:14:10;20.00;99.90
792;DHT22;379;49.022;12.148;2022-08-19T05:16:38;20.00;99.90
792;DHT22;379;49.022;12.148;2022-08-19T05:19:05;20.00;99.90
792;DHT22;379;49.022;12.148;2022-08-19T05:21:50;20.00;99.90
792;DHT22;379;49.022;12.148;2022-08-19T05:24:36;20.00;99.90
792;DHT22;379;49.022;12.148;2022-08-19T05:27:03;20.00;99.90
792;DHT22;379;49.022;12.148;2022-08-19T05:29:32;20.00;99.90
792;DHT22;379;49.022;12.148;2022-08-19T05:32:00;20.00;99.90
792;DHT22;379;49.022;12.148;2022-08-19T05:34:27;20.00;99.90
792;DHT22;379;49.022;12.148;2022-08-19T05:36:57;20.00;99.90
792;DHT22;379;49.022;12.148;2022-08-19T05:39:27;20.00;99.90
792;DHT22;379;49.022;12.148;2022-08-19T05:41:56;20.00;99.90
792;DHT22;379;49.022;12.148;2022-08-19T05:44:23;20.00;99.90
792;DHT22;379;49.022;12.148;2022-08-19T05:46:50;20.00;99.90
792;DHT22;379;49.022;12.148;2022-08-19T05:49:20;20.00;99.90
792;DHT22;379;49.022;12.148;2022-08-19T05:51:49;20.00;99.90
792;DHT22;379;49.022;12.148;2022-08-19T05:54:17;20.10;99.90
792;DHT22;379;49.022;12.148;2022-08-19T05:56:45;20.10;99.90
792;DHT22;379;49.022;12.148;2022-08-19T05:59:14;20.10;99.90
792;DHT22;379;49.022;12.148;2022-08-19T06:01:43;20.10;99.90
792;DHT22;379;49.022;12.148;2022-08-19T06:04:10;20.10;99.90
792;DHT22;379;49.022;12.148;2022-08-19T06:06:38;20.10;99.90
792;DHT22;379;49.022;12.148;2022-08-19T06:09:07;20.10;99.90
792;DHT22;379;49.022;12.148;2022-08-19T06:11:38;20.10;99.90
792;DHT22;379;49.022;12.148;2022-08-19T06:14:08;20.20;99.90
792;DHT22;379;49.022;12.148;2022-08-19T06:16:36;20.20;99.90
792;DHT22;379;49.022;12.148;2022-08-19T06:19:05;20.30;99.90
792;DHT22;379;49.022;12.148;2022-08-19T06:21:35;20.30;99.90
792;DHT22;379;49.022;12.148;2022-08-19T06:24:03;20.30;99.90
792;DHT22;379;49.022;12.148;2022-08-19T06:26:30;20.30;99.90
792;DHT22;379;49.022;12.148;2022-08-19T06:28:58;20.30;99.90
792;DHT22;379;49.022;12.148;2022-08-19T06:31:27;20.30;99.90
792;DHT22;379;49.022;12.148;2022-08-19T06:33:54;20.30;99.90
792;DHT22;379;49.022;12.148;2022-08-19T06:36:23;20.30;99.90
792;DHT22;379;49.022;12.148;2022-08-19T06:38:52;20.30;99.90
792;DHT22;379;49.022;12.148;2022-08-19T06:41:19;20.20;99.90
792;DHT22;379;49.022;12.148;2022-08-19T06:43:46;20.20;99.90
792;DHT22;379;49.022;12.148;2022-08-19T06:46:16;20.20;99.90
792;DHT22;379;49.022;12.148;2022-08-19T06:48:44;20.20;99.90
792;DHT22;379;49.022;12.148;2022-08-19T06:51:12;20.20;99.90
792;DHT22;379;49.022;12.148;2022-08-19T06:53:40;20.20;99.90
792;DHT22;379;49.022;12.148;2022-08-19T06:56:13;20.20;99.90
792;DHT22;379;49.022;12.148;2022-08-19T06:58:40;20.20;99.90
792;DHT22;379;49.022;12.148;2022-08-19T07:01:07;20.10;99.90
792;DHT22;379;49.022;12.148;2022-08-19T07:03:37;20.00;99.90
792;DHT22;379;49.022;12.148;2022-08-19T07:06:05;20.10;99.90
792;DHT22;379;49.022;12.148;2022-08-19T07:08:34;20.10;99.90
792;DHT22;379;49.022;12.148;2022-08-19T07:11:02;20.20;99.90
792;DHT22;379;49.022;12.148;2022-08-19T07:13:32;20.20;99.90
792;DHT22;379;49.022;12.148;2022-08-19T07:16:03;20.30;99.90
792;DHT22;379;49.022;12.148;2022-08-19T07:18:30;20.40;99.90
792;DHT22;379;49.022;12.148;2022-08-19T07:21:04;20.50;99.90
792;DHT22;379;49.022;12.148;2022-08-19T07:23:32;20.50;99.90
792;DHT22;379;49.022;12.148;2022-08-19T07:26:03;20.60;99.90
792;DHT22;379;49.022;12.148;2022-08-19T07:28:30;20.70;99.90
792;DHT22;379;49.022;12.148;2022-08-19T07:30:57;20.80;99.90
792;DHT22;379;49.022;12.148;2022-08-19T07:33:23;20.80;99.90
792;DHT22;379;49.022;12.148;2022-08-19T07:35:52;20.80;99.90
792;DHT22;379;49.022;12.148;2022-08-19T07:38:22;20.80;99.90
792;DHT22;379;49.022;12.148;2022-08-19T07:40:48;20.90;99.90
792;DHT22;379;49.022;12.148;2022-08-19T07:43:17;21.00;99.90
792;DHT22;379;49.022;12.148;2022-08-19T07:45:50;21.00;99.90
792;DHT22;379;49.022;12.148;2022-08-19T07:48:18;21.00;99.90
792;DHT22;379;49.022;12.148;2022-08-19T07:50:45;21.00;99.90
792;DHT22;379;49.022;12.148;2022-08-19T07:53:13;21.00;99.90
792;DHT22;379;49.022;12.148;2022-08-19T07:55:42;21.00;99.90
792;DHT22;379;49.022;12.148;2022-08-19T07:58:09;21.00;99.90
792;DHT22;379;49.022;12.148;2022-08-19T08:00:37;21.00;99.90
792;DHT22;379;49.022;12.148;2022-08-19T08:03:04;20.90;99.90
792;DHT22;379;49.022;12.148;2022-08-19T08:05:30;21.10;99.90
792;DHT22;379;49.022;12.148;2022-08-19T08:08:15;21.10;99.90
792;DHT22;379;49.022;12.148;2022-08-19T08:11:03;21.20;99.90
792;DHT22;379;49.022;12.148;2022-08-19T08:13:30;21.50;99.90
792;DHT22;379;49.022;12.148;2022-08-19T08:15:58;21.60;99.90
792;DHT22;379;49.022;12.148;2022-08-19T08:18:24;21.80;99.90
792;DHT22;379;49.022;12.148;2022-08-19T08:20:51;21.90;99.90
792;DHT22;379;49.022;12.148;2022-08-19T08:23:18;22.00;99.90
792;DHT22;379;49.022;12.148;2022-08-19T08:25:56;22.20;99.90
792;DHT22;379;49.022;12.148;2022-08-19T08:28:26;22.30;99.90
792;DHT22;379;49.022;12.148;2022-08-19T08:30:55;22.40;99.10
792;DHT22;379;49.022;12.148;2022-08-19T08:33:24;22.50;98.50
792;DHT22;379;49.022;12.148;2022-08-19T08:35:51;22.80;97.90
792;DHT22;379;49.022;12.148;2022-08-19T08:38:18;23.10;96.20
792;DHT22;379;49.022;12.148;2022-08-19T08:40:48;23.60;95.90
792;DHT22;379;49.022;12.148;2022-08-19T08:43:23;24.10;93.90
792;DHT22;379;49.022;12.148;2022-08-19T08:45:56;24.50;91.20
792;DHT22;379;49.022;12.148;2022-08-19T08:48:36;24.90;89.40
792;DHT22;379;49.022;12.148;2022-08-19T08:51:09;25.10;87.40
792;DHT22;379;49.022;12.148;2022-08-19T08:53:37;25.10;84.60
792;DHT22;379;49.022;12.148;2022-08-19T08:56:06;25.00;82.50
792;DHT22;379;49.022;12.148;2022-08-19T08:58:45;24.80;82.30
792;DHT22;379;49.022;12.148;2022-08-19T09:01:14;25.00;82.70
792;DHT22;379;49.022;12.148;2022-08-19T09:03:42;25.20;81.70
792;DHT22;379;49.022;12.148;2022-08-19T09:06:14;25.40;79.10
792;DHT22;379;49.022;12.148;2022-08-19T09:08:49;25.20;78.10
792;DHT22;379;49.022;12.148;2022-08-19T09:11:22;25.30;78.70
792;DHT22;379;49.022;12.148;2022-08-19T09:14:01;25.20;77.80
792;DHT22;379;49.022;12.148;2022-08-19T09:16:30;25.20;77.70
792;DHT22;379;49.022;12.148;2022-08-19T09:19:02;25.00;77.30
792;DHT22;379;49.022;12.148;2022-08-19T09:21:29;24.80;78.70
792;DHT22;379;49.022;12.148;2022-08-19T09:23:55;24.60;79.20
792;DHT22;379;49.022;12.148;2022-08-19T09:26:23;24.50;80.00
792;DHT22;379;49.022;12.148;2022-08-19T09:28:52;24.30;80.30
792;DHT22;379;49.022;12.148;2022-08-19T09:31:22;24.10;80.90
792;DHT22;379;49.022;12.148;2022-08-19T09:33:51;24.00;82.60
792;DHT22;379;49.022;12.148;2022-08-19T09:36:22;23.90;83.40
792;DHT22;379;49.022;12.148;2022-08-19T09:38:50;23.90;83.70
792;DHT22;379;49.022;12.148;2022-08-19T09:41:19;23.70;83.70
792;DHT22;379;49.022;12.148;2022-08-19T09:43:49;23.70;84.20
792;DHT22;379;49.022;12.148;2022-08-19T09:46:18;23.80;84.40
792;DHT22;379;49.022;12.148;2022-08-19T09:48:46;24.00;83.90
792;DHT22;379;49.022;12.148;2022-08-19T09:51:17;24.00;82.60
792;DHT22;379;49.022;12.148;2022-08-19T09:53:47;23.80;82.90
792;DHT22;379;49.022;12.148;2022-08-19T09:56:16;23.60;83.70
792;DHT22;379;49.022;12.148;2022-08-19T09:58:43;23.40;84.30
792;DHT22;379;49.022;12.148;2022-08-19T10:01:16;23.30;84.90
792;DHT22;379;49.022;12.148;2022-08-19T10:03:43;23.10;85.50
792;DHT22;379;49.022;12.148;2022-08-19T10:06:10;23.00;86.10
792;DHT22;379;49.022;12.148;2022-08-19T10:08:38;22.90;86.90
792;DHT22;379;49.022;12.148;2022-08-19T10:11:05;23.00;87.00
792;DHT22;379;49.022;12.148;2022-08-19T10:13:34;23.00;86.70
792;DHT22;379;49.022;12.148;2022-08-19T10:16:05;23.10;86.90
792;DHT22;379;49.022;12.148;2022-08-19T10:18:32;23.20;86.60
792;DHT22;379;49.022;12.148;2022-08-19T10:21:06;23.40;86.00
792;DHT22;379;49.022;12.148;2022-08-19T10:23:39;23.60;86.40
792;DHT22;379;49.022;12.148;2022-08-19T10:26:07;23.80;85.50
792;DHT22;379;49.022;12.148;2022-08-19T10:28:34;24.00;83.90
792;DHT22;379;49.022;12.148;2022-08-19T10:31:04;24.10;83.50
792;DHT22;379;49.022;12.148;2022-08-19T10:33:32;24.40;82.50
792;DHT22;379;49.022;12.148;2022-08-19T10:36:00;24.60;81.40
792;DHT22;379;49.022;12.148;2022-08-19T10:38:27;24.80;79.10
792;DHT22;379;49.022;12.148;2022-08-19T10:40:56;24.90;79.20
792;DHT22;379;49.022;12.148;2022-08-19T10:43:23;25.20;78.30
792;DHT22;379;49.022;12.148;2022-08-19T10:45:52;25.30;77.80
792;DHT22;379;49.022;12.148;2022-08-19T10:48:20;25.30;77.40
792;DHT22;379;49.022;12.148;2022-08-19T10:50:47;25.20;76.80
792;DHT22;379;49.022;12.148;2022-08-19T10:53:31;25.00;76.40
792;DHT22;379;49.022;12.148;2022-08-19T10:55:59;24.90;77.30
792;DHT22;379;49.022;12.148;2022-08-19T10:58:44;25.10;77.10
792;DHT22;379;49.022;12.148;2022-08-19T11:01:10;25.30;75.80
792;DHT22;379;49.022;12.148;2022-08-19T11:03:37;25.50;75.90
792;DHT22;379;49.022;12.148;2022-08-19T11:06:06;25.50;76.10
792;DHT22;379;49.022;12.148;2022-08-19T11:08:33;25.30;76.40
792;DHT22;379;49.022;12.148;2022-08-19T11:11:06;25.00;77.50
792;DHT22;379;49.022;12.148;2022-08-19T11:13:35;24.70;77.80
792;DHT22;379;49.022;12.148;2022-08-19T11:16:05;24.50;78.60
792;DHT22;379;49.022;12.148;2022-08-19T11:18:34;24.20;78.90
792;DHT22;379;49.022;12.148;2022-08-19T11:21:12;24.00;79.60
792;DHT22;379;49.022;12.148;2022-08-19T11:23:40;23.60;81.30
792;DHT22;379;49.022;12.148;2022-08-19T11:26:08;23.20;83.50
792;DHT22;379;49.022;12.148;2022-08-19T11:28:35;22.40;86.00
792;DHT22;379;49.022;12.148;2022-08-19T11:31:02;21.70;90.70
792;DHT22;379;49.022;12.148;2022-08-19T11:33:30;21.30;93.50
792;DHT22;379;49.022;12.148;2022-08-19T11:35:57;20.90;97.20
792;DHT22;379;49.022;12.148;2022-08-19T11:38:25;20.60;99.90
792;DHT22;379;49.022;12.148;2022-08-19T11:40:56;20.50;99.90
792;DHT22;379;49.022;12.148;2022-08-19T11:43:24;20.40;99.90
792;DHT22;379;49.022;12.148;2022-08-19T11:45:52;20.30;99.90
792;DHT22;379;49.022;12.148;2022-08-19T11:48:19;20.20;99.90
792;DHT22;379;49.022;12.148;2022-08-19T11:50:47;20.00;99.90
792;DHT22;379;49.022;12.148;2022-08-19T11:53:14;20.00;99.90
792;DHT22;379;49.022;12.148;2022-08-19T11:55:41;20.10;99.90
792;DHT22;379;49.022;12.148;2022-08-19T11:58:08;20.10;99.90
792;DHT22;379;49.022;12.148;2022-08-19T12:00:38;20.10;99.90
792;DHT22;379;49.022;12.148;2022-08-19T12:03:05;20.00;99.90
792;DHT22;379;49.022;12.148;2022-08-19T12:05:32;19.80;99.90
792;DHT22;379;49.022;12.148;2022-08-19T12:07:58;19.70;99.90
792;DHT22;379;49.022;12.148;2022-08-19T12:10:25;19.60;99.90
792;DHT22;379;49.022;12.148;2022-08-19T12:12:52;19.50;99.90
792;DHT22;379;49.022;12.148;2022-08-19T12:15:18;19.50;99.90
792;DHT22;379;49.022;12.148;2022-08-19T12:17:47;19.40;99.90
792;DHT22;379;49.022;12.148;2022-08-19T12:20:14;19.40;99.90
792;DHT22;379;49.022;12.148;2022-08-19T12:22:42;19.40;99.90
792;DHT22;379;49.022;12.148;2022-08-19T12:25:10;19.40;99.90
792;DHT22;379;49.022;12.148;2022-08-19T12:27:37;19.40;99.90
792;DHT22;379;49.022;12.148;2022-08-19T12:30:05;19.40;99.90
792;DHT22;379;49.022;12.148;2022-08-19T12:32:33;19.60;99.90
792;DHT22;379;49.022;12.148;2022-08-19T12:35:01;19.70;99.90
792;DHT22;379;49.022;12.148;2022-08-19T12:37:28;19.90;99.90
792;DHT22;379;49.022;12.148;2022-08-19T12:39:57;20.10;99.90
792;DHT22;379;49.022;12.148;2022-08-19T12:42:24;20.30;99.90
792;DHT22;379;49.022;12.148;2022-08-19T12:44:51;20.60;99.90
792;DHT22;379;49.022;12.148;2022-08-19T12:47:18;20.80;99.90
792;DHT22;379;49.022;12.148;2022-08-19T12:49:45;21.10;99.90
792;DHT22;379;49.022;12.148;2022-08-19T12:52:14;21.40;99.90
792;DHT22;379;49.022;12.148;2022-08-19T12:54:42;21.60;99.90
792;DHT22;379;49.022;12.148;2022-08-19T12:57:10;21.80;99.90
792;DHT22;379;49.022;12.148;2022-08-19T12:59:38;22.00;99.90
792;DHT22;379;49.022;12.148;2022-08-19T13:02:06;22.20;99.90
792;DHT22;379;49.022;12.148;2022-08-19T13:04:34;22.50;99.90
792;DHT22;379;49.022;12.148;2022-08-19T13:07:03;22.70;99.90
792;DHT22;379;49.022;12.148;2022-08-19T13:09:31;22.90;99.90
792;DHT22;379;49.022;12.148;2022-08-19T13:11:58;22.90;99.90
792;DHT22;379;49.022;12.148;2022-08-19T13:14:28;22.80;99.90
792;DHT22;379;49.022;12.148;2022-08-19T13:16:57;22.70;99.90
792;DHT22;379;49.022;12.148;2022-08-19T13:19:24;22.60;99.90
792;DHT22;379;49.022;12.148;2022-08-19T13:21:52;22.40;99.90
792;DHT22;379;49.022;12.148;2022-08-19T13:24:20;22.30;99.90
792;DHT22;379;49.022;12.148;2022-08-19T13:26:49;22.10;99.90
792;DHT22;379;49.022;12.148;2022-08-19T13:29:15;22.00;99.90
792;DHT22;379;49.022;12.148;2022-08-19T13:31:59;21.90;99.90
792;DHT22;379;49.022;12.148;2022-08-19T13:34:44;21.70;99.90
792;DHT22;379;49.022;12.148;2022-08-19T13:37:12;21.50;99.90
792;DHT22;379;49.022;12.148;2022-08-19T13:39:39;21.40;99.90
792;DHT22;379;49.022;12.148;2022-08-19T13:42:07;21.40;99.90
792;DHT22;379;49.022;12.148;2022-08-19T13:44:35;21.50;99.90
792;DHT22;379;49.022;12.148;2022-08-19T13:47:04;21.80;99.90
792;DHT22;379;49.022;12.148;2022-08-19T13:49:32;22.20;99.90
792;DHT22;379;49.022;12.148;2022-08-19T13:51:59;22.40;99.90
792;DHT22;379;49.022;12.148;2022-08-19T13:54:25;22.80;99.90
792;DHT22;379;49.022;12.148;2022-08-19T13:56:53;23.30;99.90
792;DHT22;379;49.022;12.148;2022-08-19T13:59:21;23.70;99.90
792;DHT22;379;49.022;12.148;2022-08-19T14:01:48;24.00;99.90
792;DHT22;379;49.022;12.148;2022-08-19T14:04:15;24.00;99.90
792;DHT22;379;49.022;12.148;2022-08-19T14:06:42;23.90;99.90
792;DHT22;379;49.022;12.148;2022-08-19T14:09:08;23.90;99.90
792;DHT22;379;49.022;12.148;2022-08-19T14:11:35;23.90;99.90
792;DHT22;379;49.022;12.148;2022-08-19T14:14:02;23.70;99.90
792;DHT22;379;49.022;12.148;2022-08-19T14:16:30;23.60;99.90
792;DHT22;379;49.022;12.148;2022-08-19T14:18:57;23.40;99.90
792;DHT22;379;49.022;12.148;2022-08-19T14:21:24;23.20;99.90
792;DHT22;379;49.022;12.148;2022-08-19T14:23:52;23.10;99.90
792;DHT22;379;49.022;12.148;2022-08-19T14:26:20;23.00;99.90
792;DHT22;379;49.022;12.148;2022-08-19T14:28:47;22.90;99.90
792;DHT22;379;49.022;12.148;2022-08-19T14:31:16;22.90;99.90
792;DHT22;379;49.022;12.148;2022-08-19T14:33:46;22.90;99.90
792;DHT22;379;49.022;12.148;2022-08-19T14:36:13;23.00;99.90
792;DHT22;379;49.022;12.148;2022-08-19T14:38:40;23.10;99.90
792;DHT22;379;49.022;12.148;2022-08-19T14:41:12;23.20;99.90
792;DHT22;379;49.022;12.148;2022-08-19T14:43:39;23.20;99.90
792;DHT22;379;49.022;12.148;2022-08-19T14:46:06;23.10;99.90
792;DHT22;379;49.022;12.148;2022-08-19T14:48:33;23.10;99.90
792;DHT22;379;49.022;12.148;2022-08-19T14:51:03;23.00;99.90
792;DHT22;379;49.022;12.148;2022-08-19T14:53:29;22.80;99.90
792;DHT22;379;49.022;12.148;2022-08-19T14:55:56;22.60;99.90
792;DHT22;379;49.022;12.148;2022-08-19T14:58:23;22.50;99.90
792;DHT22;379;49.022;12.148;2022-08-19T15:00:49;22.40;99.90
792;DHT22;379;49.022;12.148;2022-08-19T15:03:16;22.40;99.90
792;DHT22;379;49.022;12.148;2022-08-19T15:05:43;22.50;99.90
792;DHT22;379;49.022;12.148;2022-08-19T15:08:11;22.50;99.90
792;DHT22;379;49.022;12.148;2022-08-19T15:10:38;22.50;99.90
792;DHT22;379;49.022;12.148;2022-08-19T15:13:05;22.50;99.90
792;DHT22;379;49.022;12.148;2022-08-19T15:15:32;22.40;99.90
792;DHT22;379;49.022;12.148;2022-08-19T15:18:00;22.30;99.90
792;DHT22;379;49.022;12.148;2022-08-19T15:20:29;22.10;99.90
792;DHT22;379;49.022;12.148;2022-08-19T15:22:56;22.10;99.90
792;DHT22;379;49.022;12.148;2022-08-19T15:25:25;22.00;99.90
792;DHT22;379;49.022;12.148;2022-08-19T15:27:53;21.90;99.90
792;DHT22;379;49.022;12.148;2022-08-19T15:30:21;21.90;99.90
792;DHT22;379;49.022;12.148;2022-08-19T15:32:49;21.90;99.90
792;DHT22;379;49.022;12.148;2022-08-19T15:35:17;21.90;99.90
792;DHT22;379;49.022;12.148;2022-08-19T15:37:45;21.90;99.90
792;DHT22;379;49.022;12.148;2022-08-19T15:40:11;21.90;99.90
792;DHT22;379;49.022;12.148;2022-08-19T15:42:40;21.90;99.90
792;DHT22;379;49.022;12.148;2022-08-19T15:45:08;21.80;99.90
792;DHT22;379;49.022;12.148;2022-08-19T15:47:36;21.80;99.90
792;DHT22;379;49.022;12.148;2022-08-19T15:50:06;21.70;99.90
792;DHT22;379;49.022;12.148;2022-08-19T15:52:33;21.60;99.90
792;DHT22;379;49.022;12.148;2022-08-19T15:55:00;21.50;99.90
792;DHT22;379;49.022;12.148;2022-08-19T15:57:27;21.20;99.90
792;DHT22;379;49.022;12.148;2022-08-19T16:00:13;20.90;99.90
792;DHT22;379;49.022;12.148;2022-08-19T16:02:57;20.70;99.90
792;DHT22;379;49.022;12.148;2022-08-19T16:05:42;20.50;99.90
792;DHT22;379;49.022;12.148;2022-08-19T16:08:26;20.30;99.90
792;DHT22;379;49.022;12.148;2022-08-19T16:10:52;20.30;99.90
792;DHT22;379;49.022;12.148;2022-08-19T16:13:20;20.30;99.90
792;DHT22;379;49.022;12.148;2022-08-19T16:15:48;20.20;99.90
792;DHT22;379;49.022;12.148;2022-08-19T16:18:14;20.30;99.90
792;DHT22;379;49.022;12.148;2022-08-19T16:20:41;20.30;99.90
792;DHT22;379;49.022;12.148;2022-08-19T16:23:08;20.30;99.90
792;DHT22;379;49.022;12.148;2022-08-19T16:25:35;20.30;99.90
792;DHT22;379;49.022;12.148;2022-08-19T16:28:03;20.30;99.90